createdAt,value
2019-05-23T00:00:44.858Z,12.23
2019-05-23T00:03:16.124Z,11.80
2019-05-23T00:05:49.870Z,10.03
2019-05-23T00:08:24.206Z,11.40
2019-05-23T00:11:01.787Z,11.43
2019-05-23T00:13:57.668Z,11.17
2019-05-23T00:16:28.697Z,11.03
2019-05-23T00:18:58.711Z,11.53
2019-05-23T00:21:28.560Z,11.57
2019-05-23T00:24:00.148Z,11.77
2019-05-23T00:26:31.250Z,11.97
2019-05-23T00:29:09.944Z,12.13
2019-05-23T00:31:45.233Z,11.97
2019-05-23T00:34:15.265Z,13.13
2019-05-23T00:36:46.153Z,12.53
2019-05-23T00:39:16.832Z,12.70
2019-05-23T00:41:46.903Z,11.77
2019-05-23T00:44:16.843Z,12.13
2019-05-23T00:46:46.523Z,11.83
2019-05-23T00:49:16.919Z,11.90
2019-05-23T00:51:47.507Z,12.73
2019-05-23T00:54:18.188Z,13.53
2019-05-23T00:56:49.548Z,12.73
2019-05-23T00:59:27.306Z,12.70
2019-05-23T01:01:51.190Z,11.17
2019-05-23T01:04:21.972Z,11.93
2019-05-23T01:06:53.179Z,10.70
2019-05-23T01:09:25.275Z,11.37
2019-05-23T01:11:55.323Z,11.87
2019-05-23T01:14:25.792Z,11.60
2019-05-23T01:16:55.558Z,11.67
2019-05-23T01:19:25.650Z,11.77
2019-05-23T01:22:03.028Z,12.50
2019-05-23T01:24:35.226Z,12.20
2019-05-23T01:27:05.976Z,11.93
2019-05-23T01:29:49.475Z,11.17
2019-05-23T01:32:32.982Z,11.73
2019-05-23T01:35:03.038Z,12.27
2019-05-23T01:37:34.567Z,12.07
2019-05-23T01:40:05.379Z,11.77
2019-05-23T01:42:35.546Z,11.60
2019-05-23T01:45:06.157Z,11.60
2019-05-23T01:47:35.858Z,12.30
2019-05-23T01:50:06.711Z,12.70
2019-05-23T01:52:36.849Z,11.73
2019-05-23T01:55:07.983Z,10.83
2019-05-23T01:57:38.015Z,11.53
2019-05-23T02:00:11.349Z,10.63
2019-05-23T02:02:41.909Z,10.97
2019-05-23T02:05:11.591Z,11.97
2019-05-23T02:07:41.684Z,12.07
2019-05-23T02:10:13.157Z,12.53
2019-05-23T02:12:42.884Z,11.97
2019-05-23T02:15:12.673Z,10.47
2019-05-23T02:17:42.429Z,11.30
2019-05-23T02:20:14.199Z,11.13
2019-05-23T02:22:44.113Z,10.87
2019-05-23T02:25:16.761Z,10.67
2019-05-23T02:27:47.479Z,11.13
2019-05-23T02:30:33.882Z,10.50
2019-05-23T02:32:52.725Z,11.60
2019-05-23T02:35:22.743Z,10.83
2019-05-23T02:38:17.154Z,11.53
2019-05-23T02:40:56.190Z,11.50
2019-05-23T02:43:26.382Z,12.40
2019-05-23T02:46:00.017Z,11.23
2019-05-23T02:48:35.554Z,12.43
2019-05-23T02:51:08.623Z,11.13
2019-05-23T02:53:38.868Z,10.70
2019-05-23T02:56:11.620Z,10.87
2019-05-23T02:59:31.637Z,10.03
2019-05-23T03:02:47.946Z,10.57
2019-05-23T03:05:19.355Z,9.70
2019-05-23T03:07:50.385Z,10.47
2019-05-23T03:10:22.887Z,10.77
2019-05-23T03:12:52.656Z,11.13
2019-05-23T03:15:24.741Z,11.20
2019-05-23T03:17:56.714Z,11.60
2019-05-23T03:20:29.341Z,10.47
2019-05-23T03:23:06.026Z,11.10
2019-05-23T03:26:20.832Z,11.13
2019-05-23T03:28:50.250Z,10.80
2019-05-23T03:31:32.125Z,10.93
2019-05-23T03:34:01.032Z,11.17
2019-05-23T03:36:30.651Z,11.77
2019-05-23T03:39:00.121Z,11.00
2019-05-23T03:41:30.262Z,12.90
2019-05-23T03:44:01.484Z,11.97
2019-05-23T03:46:32.261Z,12.80
2019-05-23T03:49:02.033Z,11.20
2019-05-23T03:51:31.731Z,10.93
2019-05-23T03:54:02.280Z,11.00
2019-05-23T03:56:31.644Z,11.30
2019-05-23T03:59:01.859Z,11.23
2019-05-23T04:01:47.091Z,12.00
2019-05-23T04:04:04.999Z,10.70
2019-05-23T04:06:35.947Z,10.73
2019-05-23T04:09:07.932Z,10.53
2019-05-23T04:11:37.559Z,10.63
2019-05-23T04:14:07.663Z,10.77
2019-05-23T04:16:37.382Z,10.30
2019-05-23T04:19:06.902Z,10.77
2019-05-23T04:21:36.397Z,11.90
2019-05-23T04:24:06.280Z,12.13
2019-05-23T04:26:35.837Z,11.93
2019-05-23T04:29:05.301Z,10.90
2019-05-23T04:31:35.059Z,11.67
2019-05-23T04:34:04.581Z,11.77
2019-05-23T04:36:34.041Z,12.00
2019-05-23T04:39:05.042Z,11.83
2019-05-23T04:41:34.591Z,11.70
2019-05-23T04:44:06.182Z,11.47
2019-05-23T04:46:36.050Z,12.30
2019-05-23T04:49:06.582Z,12.80
2019-05-23T04:51:36.041Z,12.10
2019-05-23T04:54:06.373Z,12.50
2019-05-23T04:56:35.799Z,13.43
2019-05-23T04:59:05.762Z,12.10
2019-05-23T05:01:35.550Z,13.63
2019-05-23T05:04:06.401Z,13.63
2019-05-23T05:06:36.104Z,12.23
2019-05-23T05:09:08.621Z,11.63
2019-05-23T05:11:38.679Z,12.50
2019-05-23T05:14:08.424Z,14.00
2019-05-23T05:16:38.075Z,13.03
2019-05-23T05:19:07.824Z,14.47
2019-05-23T05:21:38.296Z,14.50
2019-05-23T05:24:07.675Z,14.20
2019-05-23T05:26:37.221Z,15.23
2019-05-23T05:29:07.076Z,15.57
2019-05-23T05:31:36.543Z,15.67
2019-05-23T05:34:06.303Z,14.60
2019-05-23T05:36:35.795Z,15.93
2019-05-23T05:39:07.904Z,15.03
2019-05-23T05:41:37.685Z,14.67
2019-05-23T05:44:07.155Z,13.07
2019-05-23T05:46:36.780Z,13.97
2019-05-23T05:49:07.025Z,15.13
2019-05-23T05:51:36.977Z,14.47
2019-05-23T05:54:07.509Z,15.30
2019-05-23T05:56:36.961Z,14.70
2019-05-23T05:59:06.446Z,14.20
2019-05-23T06:01:36.520Z,15.07
2019-05-23T06:04:07.119Z,15.63
2019-05-23T06:06:42.187Z,15.77
2019-05-23T06:09:29.498Z,15.33
2019-05-23T06:11:58.904Z,14.90
2019-05-23T06:14:28.321Z,15.63
2019-05-23T06:16:58.391Z,14.80
2019-05-23T06:19:27.980Z,14.53
2019-05-23T06:21:57.360Z,12.87
2019-05-23T06:24:41.656Z,14.63
2019-05-23T06:26:58.796Z,13.70
2019-05-23T06:29:28.473Z,13.77
2019-05-23T06:31:58.326Z,13.70
2019-05-23T06:34:27.852Z,14.67
2019-05-23T06:36:57.261Z,14.53
2019-05-23T06:39:26.864Z,14.63
2019-05-23T06:41:57.081Z,13.40
2019-05-23T06:44:26.576Z,14.37
2019-05-23T06:46:56.299Z,13.83
2019-05-23T06:49:25.679Z,14.63
2019-05-23T06:51:55.353Z,13.57
2019-05-23T06:54:24.969Z,14.57
2019-05-23T06:56:54.423Z,15.60
2019-05-23T06:59:23.927Z,14.37
2019-05-23T07:01:53.402Z,12.33
2019-05-23T07:04:22.853Z,11.37
2019-05-23T07:06:52.415Z,12.10
2019-05-23T07:09:22.196Z,13.33
2019-05-23T07:11:55.770Z,11.93
2019-05-23T07:14:25.239Z,10.43
2019-05-23T07:16:54.734Z,10.27
2019-05-23T07:19:24.243Z,8.93
2019-05-23T07:21:53.818Z,10.17
2019-05-23T07:24:24.162Z,10.93
2019-05-23T07:26:53.547Z,9.47
2019-05-23T07:29:23.503Z,6.80
2019-05-23T07:31:53.300Z,6.50
2019-05-23T07:34:23.818Z,6.37
2019-05-23T07:36:54.407Z,6.03
2019-05-23T07:39:23.868Z,6.23
2019-05-23T07:41:53.624Z,6.50
2019-05-23T07:44:23.482Z,7.90
2019-05-23T07:46:53.114Z,8.90
2019-05-23T07:49:23.147Z,9.50
2019-05-23T07:51:52.621Z,6.73
2019-05-23T07:54:40.985Z,6.03
2019-05-23T07:57:12.956Z,4.73
2019-05-23T07:59:42.431Z,4.93
2019-05-23T08:02:25.498Z,5.20
2019-05-23T08:04:53.375Z,3.40
2019-05-23T08:07:23.680Z,2.23
2019-05-23T08:09:53.380Z,2.60
2019-05-23T08:12:23.045Z,3.80
2019-05-23T08:14:52.619Z,4.03
2019-05-23T08:17:22.392Z,4.67
2019-05-23T08:19:52.166Z,5.37
2019-05-23T08:22:21.718Z,5.17
2019-05-23T08:24:51.600Z,4.60
2019-05-23T08:27:21.348Z,4.90
2019-05-23T08:29:51.040Z,5.17
2019-05-23T08:32:20.524Z,5.37
2019-05-23T08:34:50.219Z,4.40
2019-05-23T08:37:20.058Z,5.30
2019-05-23T08:39:49.900Z,6.13
2019-05-23T08:42:20.006Z,5.90
2019-05-23T08:44:49.552Z,5.70
2019-05-23T08:47:19.800Z,9.20
2019-05-23T08:49:49.655Z,6.57
2019-05-23T08:52:19.196Z,6.00
2019-05-23T08:54:51.287Z,5.87
2019-05-23T08:57:20.992Z,6.03
2019-05-23T08:59:51.099Z,5.43
2019-05-23T09:02:20.545Z,5.40
2019-05-23T09:05:03.739Z,5.43
2019-05-23T09:07:21.517Z,5.87
2019-05-23T09:09:51.058Z,5.70
2019-05-23T09:12:20.791Z,5.60
2019-05-23T09:14:50.546Z,5.60
2019-05-23T09:17:20.237Z,6.50
2019-05-23T09:19:49.859Z,5.63
2019-05-23T09:22:19.700Z,6.20
2019-05-23T09:24:49.218Z,6.33
2019-05-23T09:27:18.723Z,6.50
2019-05-23T09:29:48.381Z,6.60
2019-05-23T09:32:18.059Z,6.73
2019-05-23T09:34:47.611Z,6.00
2019-05-23T09:37:18.872Z,6.00
2019-05-23T09:39:49.797Z,5.83
2019-05-23T09:42:19.429Z,5.03
2019-05-23T09:44:49.056Z,4.83
2019-05-23T09:47:18.564Z,5.40
2019-05-23T09:49:55.355Z,5.47
2019-05-23T09:52:20.335Z,5.73
2019-05-23T09:54:49.954Z,6.37
2019-05-23T09:57:19.666Z,6.27
2019-05-23T09:59:49.223Z,5.17
2019-05-23T10:02:18.866Z,5.50
2019-05-23T10:04:48.471Z,4.97
2019-05-23T10:07:18.003Z,4.67
2019-05-23T10:09:47.534Z,4.37
2019-05-23T10:12:17.123Z,5.10
2019-05-23T10:14:46.675Z,4.50
2019-05-23T10:17:16.205Z,5.53
2019-05-23T10:19:45.836Z,4.93
2019-05-23T10:22:15.747Z,5.70
2019-05-23T10:24:45.245Z,4.90
2019-05-23T10:27:14.841Z,5.27
2019-05-23T10:29:44.363Z,5.40
2019-05-23T10:32:13.995Z,5.90
2019-05-23T10:34:43.604Z,5.67
2019-05-23T10:37:16.345Z,5.70
2019-05-23T10:39:49.934Z,6.30
2019-05-23T10:42:20.042Z,7.40
2019-05-23T10:44:50.098Z,5.60
2019-05-23T10:47:21.894Z,4.90
2019-05-23T10:50:10.367Z,5.77
2019-05-23T10:52:40.267Z,5.57
2019-05-23T10:55:10.649Z,5.13
2019-05-23T10:57:40.424Z,5.40
2019-05-23T11:00:14.961Z,5.23
2019-05-23T11:02:46.009Z,5.60
2019-05-23T11:05:16.156Z,5.73
2019-05-23T11:07:45.998Z,5.53
2019-05-23T11:10:16.492Z,4.90
2019-05-23T11:23:34.011Z,4.73
2019-05-23T11:26:04.242Z,5.03
2019-05-23T11:28:35.736Z,6.10
2019-05-23T11:31:07.019Z,5.53
2019-05-23T11:33:36.793Z,5.73
2019-05-23T11:36:06.760Z,5.80
2019-05-23T11:38:36.525Z,5.20
2019-05-23T11:41:06.118Z,6.60
2019-05-23T11:43:35.828Z,5.80
2019-05-23T11:46:12.656Z,5.43
2019-05-23T11:48:42.256Z,5.43
2019-05-23T11:51:11.993Z,5.27
2019-05-23T11:53:45.452Z,5.03
2019-05-23T11:56:13.005Z,5.17
2019-05-23T11:58:42.553Z,5.03
2019-05-23T12:01:24.090Z,4.73
2019-05-23T12:03:59.475Z,4.47
2019-05-23T12:06:33.547Z,4.70
2019-05-23T12:09:03.083Z,4.00
2019-05-23T12:11:36.633Z,4.03
2019-05-23T12:14:04.865Z,5.07
2019-05-23T12:16:34.512Z,4.70
2019-05-23T12:19:04.378Z,4.30
2019-05-23T12:21:34.307Z,4.30
2019-05-23T12:24:03.846Z,4.33
2019-05-23T12:26:33.433Z,4.53
2019-05-23T12:29:03.183Z,4.00
2019-05-23T12:31:32.864Z,4.33
2019-05-23T12:34:02.484Z,4.47
2019-05-23T12:36:32.436Z,4.10
2019-05-23T12:39:02.395Z,4.10
2019-05-23T12:41:31.917Z,4.40
2019-05-23T12:44:01.417Z,4.53
2019-05-23T12:46:31.075Z,4.60
2019-05-23T12:49:09.473Z,4.70
2019-05-23T12:51:56.715Z,4.20
2019-05-23T12:54:26.669Z,4.40
2019-05-23T12:56:58.500Z,5.27
2019-05-23T12:59:28.230Z,4.77
2019-05-23T13:05:28.366Z,5.37
2019-05-23T13:08:00.643Z,5.20
2019-05-23T13:10:30.926Z,5.10
2019-05-23T13:13:00.464Z,4.87
2019-05-23T13:15:31.002Z,5.17
2019-05-23T13:18:00.596Z,5.10
2019-05-23T13:20:30.942Z,4.47
2019-05-23T13:23:00.685Z,4.00
2019-05-23T13:25:30.666Z,4.30
2019-05-23T13:28:00.298Z,3.90
2019-05-23T13:30:29.883Z,4.87
2019-05-23T13:33:03.376Z,4.30
2019-05-23T13:35:31.222Z,4.60
2019-05-23T13:38:00.813Z,4.43
2019-05-23T13:40:30.429Z,4.90
2019-05-23T13:43:00.072Z,4.67
2019-05-23T13:45:29.620Z,4.47
2019-05-23T13:47:59.324Z,3.93
2019-05-23T13:50:28.892Z,3.73
2019-05-23T13:52:58.604Z,4.20
2019-05-23T13:55:28.409Z,4.67
2019-05-23T13:57:58.188Z,3.53
2019-05-23T14:00:28.751Z,3.87
2019-05-23T14:02:58.791Z,3.50
2019-05-23T14:05:29.007Z,4.20
2019-05-23T14:08:11.519Z,4.50
2019-05-23T14:10:30.233Z,3.80
2019-05-23T14:13:00.132Z,4.07
2019-05-23T14:15:35.123Z,4.67
2019-05-23T14:18:04.907Z,4.40
2019-05-23T14:20:34.577Z,3.70
2019-05-23T14:23:11.653Z,4.40
2019-05-23T14:25:41.539Z,4.97
2019-05-23T14:28:11.483Z,4.10
2019-05-23T14:30:58.977Z,4.40
2019-05-23T14:33:46.516Z,3.60
2019-05-23T14:36:41.649Z,3.80
2019-05-23T14:39:24.205Z,4.17
2019-05-23T14:41:59.815Z,4.10
2019-05-23T14:44:29.432Z,4.27
2019-05-23T14:47:17.206Z,4.03
2019-05-23T14:49:55.944Z,3.77
2019-05-23T14:52:31.030Z,4.07
2019-05-23T14:55:03.511Z,4.67
2019-05-23T14:57:33.306Z,4.57
2019-05-23T15:00:03.083Z,3.67
2019-05-23T15:02:33.473Z,3.73
2019-05-23T15:05:04.480Z,4.17
2019-05-23T15:07:34.700Z,4.33
2019-05-23T15:10:05.515Z,4.20
2019-05-23T15:12:35.139Z,3.60
2019-05-23T15:15:06.389Z,4.07
2019-05-23T15:17:36.099Z,4.20
2019-05-23T15:20:06.512Z,4.10
2019-05-23T15:22:36.314Z,3.10
2019-05-23T15:25:06.390Z,3.73
2019-05-23T15:27:36.028Z,3.80
2019-05-23T15:30:06.627Z,4.13
2019-05-23T15:32:36.219Z,3.80
2019-05-23T15:35:05.933Z,3.47
2019-05-23T15:37:35.569Z,4.50
2019-05-23T15:40:05.794Z,3.97
2019-05-23T15:42:35.388Z,3.90
2019-05-23T15:45:05.387Z,3.83
2019-05-23T15:47:36.215Z,3.67
2019-05-23T15:50:11.386Z,4.07
2019-05-23T15:53:04.964Z,3.77
2019-05-23T15:55:42.836Z,3.80
2019-05-23T15:58:30.757Z,3.73
2019-05-23T16:01:15.503Z,3.27
2019-05-23T16:03:47.804Z,4.00
2019-05-23T16:06:19.345Z,3.43
2019-05-23T16:08:49.298Z,3.70
2019-05-23T16:11:18.905Z,3.90
2019-05-23T16:13:48.486Z,3.70
2019-05-23T16:16:18.023Z,3.70
2019-05-23T16:18:48.370Z,3.37
2019-05-23T16:21:18.756Z,3.60
2019-05-23T16:23:48.297Z,3.60
2019-05-23T16:26:18.366Z,3.70
2019-05-23T16:28:47.945Z,3.50
2019-05-23T16:31:17.565Z,3.27
2019-05-23T16:33:47.148Z,3.60
2019-05-23T16:36:16.930Z,3.70
2019-05-23T16:38:46.445Z,3.93
2019-05-23T16:41:16.068Z,3.53
2019-05-23T16:43:45.617Z,3.60
2019-05-23T16:46:15.302Z,3.33
2019-05-23T16:48:44.906Z,3.87
2019-05-23T16:51:14.622Z,3.63
2019-05-23T16:53:44.804Z,4.60
2019-05-23T16:56:22.551Z,4.03
2019-05-23T16:59:13.858Z,3.53
2019-05-23T17:02:17.848Z,4.13
2019-05-23T17:05:09.837Z,3.93
2019-05-23T17:07:47.906Z,3.60
2019-05-23T17:10:22.286Z,3.90
2019-05-23T17:13:02.947Z,3.20
2019-05-23T17:15:43.351Z,3.50
2019-05-23T17:18:44.483Z,3.13
2019-05-23T17:21:39.343Z,4.43
2019-05-23T17:24:14.270Z,4.23
2019-05-23T17:26:51.694Z,3.50
2019-05-23T17:29:38.907Z,3.50
2019-05-23T17:32:10.855Z,3.70
2019-05-23T17:34:40.527Z,3.70
2019-05-23T17:37:12.194Z,3.40
2019-05-23T17:39:43.767Z,3.67
2019-05-23T17:42:13.477Z,3.47
2019-05-23T17:44:43.076Z,3.33
2019-05-23T17:47:12.795Z,3.23
2019-05-23T17:49:42.387Z,3.23
2019-05-23T17:52:12.695Z,3.10
2019-05-23T17:54:42.378Z,3.17
2019-05-23T17:57:11.971Z,3.13
2019-05-23T17:59:41.895Z,3.07
2019-05-23T18:02:12.859Z,3.27
2019-05-23T18:04:42.366Z,3.30
2019-05-23T18:07:12.824Z,2.77
2019-05-23T18:09:42.323Z,3.00
2019-05-23T18:12:12.701Z,3.10
2019-05-23T18:14:43.559Z,3.10
2019-05-23T18:17:13.232Z,3.17
2019-05-23T18:19:43.173Z,3.40
2019-05-23T18:22:14.050Z,3.47
2019-05-23T18:24:43.581Z,3.10
2019-05-23T18:27:13.783Z,3.37
2019-05-23T18:29:43.736Z,2.83
2019-05-23T18:32:18.592Z,3.40
2019-05-23T18:34:48.449Z,3.50
2019-05-23T18:37:18.544Z,3.43
2019-05-23T18:39:48.392Z,5.37
2019-05-23T18:42:18.616Z,5.93
2019-05-23T18:44:48.122Z,3.83
2019-05-23T18:47:29.278Z,3.63
2019-05-23T18:49:59.073Z,3.03
2019-05-23T18:52:28.647Z,3.20
2019-05-23T18:54:58.340Z,3.30
2019-05-23T18:57:28.325Z,3.50
2019-05-23T18:59:57.981Z,3.30
2019-05-23T19:02:27.862Z,3.30
2019-05-23T19:04:58.032Z,3.37
2019-05-23T19:07:28.003Z,3.70
2019-05-23T19:09:57.664Z,4.33
2019-05-23T19:12:27.234Z,4.10
2019-05-23T19:14:56.965Z,4.00
2019-05-23T19:17:26.595Z,7.70
2019-05-23T19:19:58.349Z,4.70
2019-05-23T19:22:28.429Z,5.30
2019-05-23T19:24:58.297Z,4.23
2019-05-23T19:27:27.824Z,4.40
2019-05-23T19:29:57.808Z,4.83
2019-05-23T19:32:27.410Z,3.70
2019-05-23T19:34:57.075Z,4.50
2019-05-23T19:37:27.261Z,4.30
2019-05-23T19:39:56.770Z,4.40
2019-05-23T19:42:26.285Z,4.60
2019-05-23T19:44:55.849Z,4.43
2019-05-23T19:47:27.249Z,5.40
2019-05-23T19:49:56.827Z,4.43
2019-05-23T19:52:26.761Z,4.90
2019-05-23T19:54:56.756Z,5.83
2019-05-23T19:57:26.623Z,5.07
2019-05-23T19:59:56.153Z,5.00
2019-05-23T20:02:44.717Z,5.60
2019-05-23T20:05:22.697Z,5.73
2019-05-23T20:07:52.373Z,6.10
2019-05-23T20:10:23.931Z,5.33
2019-05-23T20:13:12.854Z,6.87
2019-05-23T20:15:45.589Z,7.83
2019-05-23T20:18:14.315Z,7.90
2019-05-23T20:20:44.010Z,6.70
2019-05-23T20:23:16.028Z,5.43
2019-05-23T20:25:45.233Z,5.57
2019-05-23T20:28:14.881Z,6.10
2019-05-23T20:31:04.657Z,5.53
2019-05-23T20:33:34.415Z,6.00
2019-05-23T20:36:06.870Z,6.60
2019-05-23T20:38:36.465Z,6.40
2019-05-23T20:41:06.192Z,6.87
2019-05-23T20:43:35.913Z,6.50
2019-05-23T20:46:05.617Z,7.20
2019-05-23T20:48:36.355Z,8.13
2019-05-23T20:51:06.072Z,7.30
2019-05-23T20:53:35.853Z,6.97
2019-05-23T20:56:05.732Z,7.43
2019-05-23T20:58:35.531Z,6.57
2019-05-23T21:01:18.913Z,8.23
2019-05-23T21:03:49.563Z,7.30
2019-05-23T21:06:19.184Z,7.90
2019-05-23T21:08:48.825Z,7.37
2019-05-23T21:11:18.537Z,7.13
2019-05-23T21:13:48.260Z,7.83
2019-05-23T21:16:17.894Z,8.03
2019-05-23T21:18:49.977Z,7.53
2019-05-23T21:21:18.846Z,7.73
2019-05-23T21:23:48.674Z,7.93
2019-05-23T21:26:18.304Z,7.70
2019-05-23T21:28:47.869Z,7.80
2019-05-23T21:31:21.996Z,8.10
2019-05-23T21:33:51.717Z,8.57
2019-05-23T21:36:21.521Z,8.60
2019-05-23T21:38:51.148Z,8.33
2019-05-23T21:41:20.770Z,8.30
2019-05-23T21:43:52.330Z,8.53
2019-05-23T21:46:21.997Z,8.23
2019-05-23T21:48:51.627Z,8.43
2019-05-23T21:51:21.517Z,8.33
2019-05-23T21:53:51.149Z,7.70
2019-05-23T21:56:20.772Z,8.03
2019-05-23T21:58:50.392Z,8.30
2019-05-23T22:01:41.442Z,7.43
2019-05-23T22:04:45.271Z,9.10
2019-05-23T22:07:15.213Z,9.13
2019-05-23T22:09:45.310Z,9.47
2019-05-23T22:12:15.232Z,9.33
2019-05-23T22:14:45.408Z,8.67
2019-05-23T22:17:15.080Z,8.80
2019-05-23T22:19:44.713Z,8.80
2019-05-23T22:22:14.334Z,8.17
2019-05-23T22:24:43.967Z,7.00
2019-05-23T22:27:14.950Z,8.27
2019-05-23T22:29:44.641Z,8.63
2019-05-23T22:32:16.006Z,7.20
2019-05-23T22:34:59.444Z,8.00
2019-05-23T22:37:30.255Z,7.47
2019-05-23T22:39:59.880Z,9.43
2019-05-23T22:42:30.148Z,8.87
2019-05-23T22:44:59.851Z,9.17
2019-05-23T22:47:29.839Z,9.60
2019-05-23T22:49:59.446Z,9.80
2019-05-23T22:52:29.165Z,9.53
2019-05-23T22:54:58.759Z,10.57
2019-05-23T22:57:28.367Z,11.37
2019-05-23T22:59:58.031Z,9.27
2019-05-23T23:02:27.797Z,11.37
2019-05-23T23:04:57.641Z,9.53
2019-05-23T23:07:27.318Z,8.93
2019-05-23T23:09:56.836Z,9.07
2019-05-23T23:12:26.531Z,9.97
2019-05-23T23:14:56.146Z,9.70
2019-05-23T23:17:25.712Z,9.27
2019-05-23T23:19:55.398Z,9.90
2019-05-23T23:22:25.030Z,10.13
2019-05-23T23:24:54.660Z,11.47
2019-05-23T23:27:24.262Z,10.90
2019-05-23T23:29:53.794Z,11.37
2019-05-23T23:32:23.448Z,12.23
2019-05-23T23:34:53.291Z,11.57
2019-05-23T23:37:23.076Z,10.83
2019-05-23T23:39:52.603Z,11.90
2019-05-23T23:42:22.365Z,11.53
2019-05-23T23:44:51.276Z,11.40
2019-05-23T23:47:38.555Z,9.97
2019-05-23T23:50:26.097Z,9.60
2019-05-23T23:53:13.515Z,9.50
2019-05-23T23:56:00.955Z,9.37
2019-05-23T23:58:30.018Z,8.90
